createdAt,value
2023-05-01T00:00:42.454Z,23.84
2023-05-01T00:01:42.458Z,23.84
2023-05-01T00:02:42.534Z,23.83
2023-05-01T00:03:42.686Z,23.85
2023-05-01T00:04:42.485Z,23.83
2023-05-01T00:05:42.420Z,23.83
2023-05-01T00:06:42.483Z,23.83
2023-05-01T00:07:42.412Z,23.83
2023-05-01T00:08:42.414Z,23.80
2023-05-01T00:09:42.433Z,23.80
2023-05-01T00:10:42.418Z,23.81
2023-05-01T00:11:42.378Z,23.81
2023-05-01T00:12:42.370Z,23.80
2023-05-01T00:13:42.411Z,23.79
2023-05-01T00:14:42.377Z,23.81
2023-05-01T00:15:42.424Z,23.81
2023-05-01T00:16:42.393Z,23.80
2023-05-01T00:17:42.360Z,23.79
2023-05-01T00:18:42.355Z,23.79
2023-05-01T00:19:42.316Z,23.77
2023-05-01T00:20:42.326Z,23.77
2023-05-01T00:21:42.328Z,23.74
2023-05-01T00:22:42.382Z,23.74
2023-05-01T00:23:42.323Z,23.74
2023-05-01T00:24:42.297Z,23.74
2023-05-01T00:25:42.298Z,23.72
2023-05-01T00:26:42.339Z,23.73
2023-05-01T00:27:42.297Z,23.72
2023-05-01T00:28:42.260Z,23.72
2023-05-01T00:29:42.288Z,23.73
2023-05-01T00:30:42.291Z,23.72
2023-05-01T00:31:42.339Z,23.69
2023-05-01T00:32:42.283Z,23.70
2023-05-01T00:33:42.284Z,23.67
2023-05-01T00:34:42.274Z,23.69
2023-05-01T00:35:42.345Z,23.67
2023-05-01T00:36:42.387Z,23.66
2023-05-01T00:37:42.433Z,23.66
2023-05-01T00:38:42.465Z,23.66
2023-05-01T00:39:42.529Z,23.69
2023-05-01T00:40:42.590Z,23.64
2023-05-01T00:41:42.650Z,23.64
2023-05-01T00:42:42.687Z,23.64
2023-05-01T00:43:42.807Z,23.63
2023-05-01T00:44:42.795Z,23.66
2023-05-01T00:45:42.916Z,23.63
2023-05-01T00:46:42.924Z,23.62
2023-05-01T00:47:43.022Z,23.62
2023-05-01T00:48:43.006Z,23.60
2023-05-01T00:49:43.071Z,23.62
2023-05-01T00:50:43.104Z,23.60
2023-05-01T00:51:43.187Z,23.60
2023-05-01T00:52:43.196Z,23.59
2023-05-01T00:53:43.283Z,23.59
2023-05-01T00:54:43.360Z,23.56
2023-05-01T00:55:43.393Z,23.57
2023-05-01T00:56:43.460Z,23.59
2023-05-01T00:57:43.529Z,23.57
2023-05-01T00:58:43.589Z,23.56
2023-05-01T00:59:43.620Z,23.56
2023-05-01T01:00:43.729Z,23.54
2023-05-01T01:01:43.864Z,23.54
2023-05-01T01:02:43.831Z,23.52
2023-05-01T01:03:43.860Z,23.53
2023-05-01T01:04:44.008Z,23.54
2023-05-01T01:05:43.976Z,23.52
2023-05-01T01:06:44.182Z,23.48
2023-05-01T01:07:44.111Z,23.50
2023-05-01T01:08:44.166Z,23.49
2023-05-01T01:09:44.185Z,23.50
2023-05-01T01:10:44.261Z,23.49
2023-05-01T01:11:44.304Z,23.46
2023-05-01T01:12:44.384Z,23.46
2023-05-01T01:13:44.393Z,23.45
2023-05-01T01:14:44.490Z,23.46
2023-05-01T01:15:44.524Z,23.48
2023-05-01T01:16:44.646Z,23.43
2023-05-01T01:17:44.670Z,23.45
2023-05-01T01:18:44.670Z,23.45
2023-05-01T01:19:44.725Z,23.45
2023-05-01T01:20:44.781Z,23.45
2023-05-01T01:21:44.869Z,23.43
2023-05-01T01:22:44.936Z,23.45
2023-05-01T01:23:44.980Z,23.43
2023-05-01T01:24:45.045Z,23.43
2023-05-01T01:25:45.109Z,23.45
2023-05-01T01:26:45.176Z,23.43
2023-05-01T01:27:45.220Z,23.45
2023-05-01T01:28:45.304Z,23.43
2023-05-01T01:29:45.338Z,23.45
2023-05-01T01:30:45.467Z,23.45
2023-05-01T01:31:45.540Z,23.43
2023-05-01T01:32:45.588Z,23.46
2023-05-01T01:33:45.598Z,23.43
2023-05-01T01:34:45.675Z,23.48
2023-05-01T01:35:45.700Z,23.48
2023-05-01T01:36:45.748Z,23.45
2023-05-01T01:37:45.822Z,23.48
2023-05-01T01:38:45.882Z,23.48
2023-05-01T01:39:45.937Z,23.48
2023-05-01T01:40:46.024Z,23.48
2023-05-01T01:41:46.047Z,23.46
2023-05-01T01:42:46.128Z,23.46
2023-05-01T01:43:46.189Z,23.49
2023-05-01T01:44:46.278Z,23.49
2023-05-01T01:45:46.354Z,23.48
2023-05-01T01:46:46.382Z,23.49
2023-05-01T01:47:46.464Z,23.50
2023-05-01T01:48:46.518Z,23.46
2023-05-01T01:49:46.518Z,23.48
2023-05-01T01:50:46.589Z,23.46
2023-05-01T01:51:46.771Z,23.46
2023-05-01T01:52:46.729Z,23.49
2023-05-01T01:53:46.786Z,23.46
2023-05-01T01:54:46.834Z,23.49
2023-05-01T01:55:46.924Z,23.48
2023-05-01T01:56:46.977Z,23.48
2023-05-01T01:57:47.052Z,23.46
2023-05-01T01:58:47.107Z,23.46
2023-05-01T01:59:47.147Z,23.46
2023-05-01T02:00:47.216Z,23.46
2023-05-01T02:01:47.307Z,23.46
2023-05-01T02:02:47.461Z,23.46
2023-05-01T02:03:47.421Z,23.45
2023-05-01T02:04:47.449Z,23.45
2023-05-01T02:05:47.492Z,23.43
2023-05-01T02:06:47.565Z,23.42
2023-05-01T02:07:47.611Z,23.43
2023-05-01T02:08:47.662Z,23.41
2023-05-01T02:09:47.728Z,23.42
2023-05-01T02:10:47.751Z,23.41
2023-05-01T02:11:47.831Z,23.39
2023-05-01T02:12:47.862Z,23.41
2023-05-01T02:13:47.902Z,23.41
2023-05-01T02:14:47.954Z,23.39
2023-05-01T02:15:48.024Z,23.36
2023-05-01T02:16:48.006Z,23.39
2023-05-01T02:17:48.159Z,23.35
2023-05-01T02:18:48.144Z,23.36
2023-05-01T02:19:48.135Z,23.38
2023-05-01T02:20:48.154Z,23.36
2023-05-01T02:21:48.227Z,23.38
2023-05-01T02:22:48.254Z,23.33
2023-05-01T02:23:48.227Z,23.35
2023-05-01T02:24:49.673Z,23.33
2023-05-01T02:25:48.249Z,23.33
2023-05-01T02:26:48.253Z,23.30
2023-05-01T02:27:48.250Z,23.32
2023-05-01T02:28:48.284Z,23.29
2023-05-01T02:29:48.270Z,23.30
2023-05-01T02:30:48.295Z,23.32
2023-05-01T02:31:48.366Z,23.30
2023-05-01T02:32:48.392Z,23.28
2023-05-01T02:33:48.367Z,23.30
2023-05-01T02:34:48.398Z,23.28
2023-05-01T02:35:48.413Z,23.28
2023-05-01T02:36:48.408Z,23.26
2023-05-01T02:37:48.369Z,23.26
2023-05-01T02:38:48.380Z,23.25
2023-05-01T02:39:48.417Z,23.23
2023-05-01T02:40:48.380Z,23.25
2023-05-01T02:41:48.446Z,23.23
2023-05-01T02:42:48.397Z,23.23
2023-05-01T02:43:48.401Z,23.23
2023-05-01T02:44:48.437Z,23.25
2023-05-01T02:45:48.483Z,23.22
2023-05-01T02:46:48.490Z,23.25
2023-05-01T02:47:48.522Z,23.22
2023-05-01T02:48:48.512Z,23.21
2023-05-01T02:49:48.457Z,23.23
2023-05-01T02:50:48.426Z,23.23
2023-05-01T02:51:48.479Z,23.25
2023-05-01T02:52:48.421Z,23.25
2023-05-01T02:53:48.504Z,23.22
2023-05-01T02:54:48.464Z,23.26
2023-05-01T02:55:48.515Z,23.25
2023-05-01T02:56:48.504Z,23.23
2023-05-01T02:57:48.511Z,23.25
2023-05-01T02:58:48.497Z,23.25
2023-05-01T02:59:48.451Z,23.25
2023-05-01T03:00:48.573Z,23.23
2023-05-01T03:01:48.669Z,23.23
2023-05-01T03:02:48.610Z,23.22
2023-05-01T03:03:48.484Z,23.23
2023-05-01T03:04:48.630Z,23.25
2023-05-01T03:05:48.501Z,23.26
2023-05-01T03:06:48.659Z,23.25
2023-05-01T03:07:48.619Z,23.23
2023-05-01T03:08:48.676Z,23.25
2023-05-01T03:09:48.664Z,23.26
2023-05-01T03:10:48.509Z,23.25
2023-05-01T03:11:48.661Z,23.26
2023-05-01T03:12:48.654Z,23.26
2023-05-01T03:13:48.576Z,23.23
2023-05-01T03:14:48.559Z,23.22
2023-05-01T03:15:48.541Z,23.23
2023-05-01T03:16:48.665Z,23.23
2023-05-01T03:17:48.571Z,23.25
2023-05-01T03:18:48.532Z,23.23
2023-05-01T03:19:48.520Z,23.22
2023-05-01T03:20:48.539Z,23.21
2023-05-01T03:21:48.540Z,23.22
2023-05-01T03:22:48.551Z,23.22
2023-05-01T03:23:48.528Z,23.21
2023-05-01T03:24:48.551Z,23.22
2023-05-01T03:25:48.553Z,23.21
2023-05-01T03:26:48.508Z,23.19
2023-05-01T03:27:48.537Z,23.21
2023-05-01T03:28:48.540Z,23.19
2023-05-01T03:29:48.569Z,23.22
2023-05-01T03:30:48.534Z,23.22
2023-05-01T03:31:48.591Z,23.22
2023-05-01T03:32:48.572Z,23.22
2023-05-01T03:33:48.573Z,23.23
2023-05-01T03:34:48.540Z,23.21
2023-05-01T03:35:48.699Z,23.22
2023-05-01T03:36:48.553Z,23.19
2023-05-01T03:37:48.568Z,23.21
2023-05-01T03:38:48.569Z,23.19
2023-05-01T03:39:48.546Z,23.21
2023-05-01T03:40:48.525Z,23.22
2023-05-01T03:41:48.563Z,23.19
2023-05-01T03:42:48.524Z,23.21
2023-05-01T03:43:48.524Z,23.19
2023-05-01T03:44:48.538Z,23.19
2023-05-01T03:45:48.580Z,23.18
2023-05-01T03:46:48.518Z,23.19
2023-05-01T03:47:48.547Z,23.18
2023-05-01T03:48:48.530Z,23.16
2023-05-01T03:49:48.530Z,23.18
2023-05-01T03:50:48.534Z,23.18
2023-05-01T03:51:48.550Z,23.15
2023-05-01T03:52:48.533Z,23.16
2023-05-01T03:53:48.525Z,23.18
2023-05-01T03:54:48.510Z,23.15
2023-05-01T03:55:48.528Z,23.18
2023-05-01T03:56:48.563Z,23.18
2023-05-01T03:57:48.557Z,23.12
2023-05-01T03:58:48.537Z,23.16
2023-05-01T03:59:48.570Z,23.15
2023-05-01T04:00:48.546Z,23.16
2023-05-01T04:01:48.646Z,23.14
2023-05-01T04:02:48.754Z,23.14
2023-05-01T04:03:48.725Z,23.15
2023-05-01T04:04:48.641Z,23.14
2023-05-01T04:05:48.600Z,23.15
2023-05-01T04:06:48.735Z,23.12
2023-05-01T04:07:48.601Z,23.14
2023-05-01T04:08:48.645Z,23.11
2023-05-01T04:09:48.650Z,23.14
2023-05-01T04:10:48.662Z,23.12
2023-05-01T04:11:48.696Z,23.12
2023-05-01T04:12:48.693Z,23.11
2023-05-01T04:13:48.666Z,23.12
2023-05-01T04:14:48.697Z,23.11
2023-05-01T04:15:48.753Z,23.09
2023-05-01T04:16:48.705Z,23.11
2023-05-01T04:17:48.778Z,23.11
2023-05-01T04:18:48.744Z,23.11
2023-05-01T04:19:48.735Z,23.11
2023-05-01T04:20:48.747Z,23.11
2023-05-01T04:21:48.765Z,23.11
2023-05-01T04:22:48.770Z,23.09
2023-05-01T04:23:48.784Z,23.12
2023-05-01T04:24:48.771Z,23.14
2023-05-01T04:25:48.800Z,23.14
2023-05-01T04:26:48.788Z,23.14
2023-05-01T04:27:48.798Z,23.15
2023-05-01T04:28:48.764Z,23.14
2023-05-01T04:29:48.809Z,23.14
2023-05-01T04:30:48.817Z,23.12
2023-05-01T04:31:48.851Z,23.14
2023-05-01T04:32:48.841Z,23.14
2023-05-01T04:33:48.792Z,23.15
2023-05-01T04:34:48.836Z,23.15
2023-05-01T04:35:48.815Z,23.14
2023-05-01T04:36:48.851Z,23.14
2023-05-01T04:37:48.804Z,23.14
2023-05-01T04:38:48.827Z,23.14
2023-05-01T04:39:48.878Z,23.11
2023-05-01T04:40:48.856Z,23.12
2023-05-01T04:41:48.846Z,23.12
2023-05-01T04:42:48.843Z,23.12
2023-05-01T04:43:48.865Z,23.11
2023-05-01T04:44:48.874Z,23.12
2023-05-01T04:45:48.888Z,23.11
2023-05-01T04:46:49.022Z,23.09
2023-05-01T04:47:49.521Z,23.08
2023-05-01T04:48:48.922Z,23.11
2023-05-01T04:49:48.897Z,23.09
2023-05-01T04:50:48.947Z,23.11
2023-05-01T04:51:48.953Z,23.12
2023-05-01T04:52:48.960Z,23.09
2023-05-01T04:53:48.953Z,23.08
2023-05-01T04:54:48.963Z,23.09
2023-05-01T04:55:49.000Z,23.12
2023-05-01T04:56:48.971Z,23.09
2023-05-01T04:57:48.986Z,23.09
2023-05-01T04:58:48.984Z,23.11
2023-05-01T04:59:49.043Z,23.11
2023-05-01T05:00:49.116Z,23.12
2023-05-01T05:01:49.103Z,23.09
2023-05-01T05:02:49.100Z,23.14
2023-05-01T05:03:50.241Z,23.09
2023-05-01T05:04:49.073Z,23.14
2023-05-01T05:05:49.055Z,23.11
2023-05-01T05:06:49.255Z,23.14
2023-05-01T05:07:49.053Z,23.14
2023-05-01T05:08:49.075Z,23.15
2023-05-01T05:09:49.083Z,23.12
2023-05-01T05:10:49.085Z,23.14
2023-05-01T05:11:49.084Z,23.15
2023-05-01T05:12:49.087Z,23.14
2023-05-01T05:13:49.096Z,23.14
2023-05-01T05:14:49.116Z,23.12
2023-05-01T05:15:49.092Z,23.12
2023-05-01T05:16:49.282Z,23.15
2023-05-01T05:17:49.166Z,23.12
2023-05-01T05:18:49.129Z,23.15
2023-05-01T05:19:49.140Z,23.14
2023-05-01T05:20:49.137Z,23.14
2023-05-01T05:21:49.160Z,23.12
2023-05-01T05:22:49.259Z,23.12
2023-05-01T05:23:49.160Z,23.11
2023-05-01T05:24:49.132Z,23.11
2023-05-01T05:25:49.188Z,23.08
2023-05-01T05:26:49.187Z,23.08
2023-05-01T05:27:51.013Z,23.05
2023-05-01T05:28:49.218Z,23.05
2023-05-01T05:29:49.213Z,23.08
2023-05-01T05:30:49.224Z,23.04
2023-05-01T05:31:49.262Z,23.05
2023-05-01T05:32:49.296Z,23.04
2023-05-01T05:33:49.277Z,23.04
2023-05-01T05:34:49.249Z,23.04
2023-05-01T05:35:49.291Z,23.02
2023-05-01T05:36:49.310Z,23.04
2023-05-01T05:37:49.292Z,23.05
2023-05-01T05:38:49.343Z,23.05
2023-05-01T05:39:49.333Z,23.04
2023-05-01T05:40:49.338Z,23.08
2023-05-01T05:41:49.365Z,23.05
2023-05-01T05:42:49.363Z,23.04
2023-05-01T05:43:49.328Z,23.07
2023-05-01T05:44:49.342Z,23.08
2023-05-01T05:45:49.415Z,23.08
2023-05-01T05:46:49.369Z,23.08
2023-05-01T05:47:49.396Z,23.08
2023-05-01T05:48:49.348Z,23.09
2023-05-01T05:49:49.315Z,23.11
2023-05-01T05:50:49.330Z,23.09
2023-05-01T05:51:49.337Z,23.09
2023-05-01T05:52:49.341Z,23.07
2023-05-01T05:53:49.359Z,23.09
2023-05-01T05:54:49.360Z,23.08
2023-05-01T05:55:49.355Z,23.09
2023-05-01T05:56:49.341Z,23.12
2023-05-01T05:57:49.350Z,23.12
2023-05-01T05:58:49.362Z,23.12
2023-05-01T05:59:49.349Z,23.12
2023-05-01T06:00:49.361Z,23.12
2023-05-01T06:01:49.400Z,23.11
2023-05-01T06:02:49.416Z,23.12
2023-05-01T06:03:49.390Z,23.15
2023-05-01T06:04:49.342Z,23.11
2023-05-01T06:05:49.413Z,23.15
2023-05-01T06:06:49.408Z,23.15
2023-05-01T06:07:49.370Z,23.12
2023-05-01T06:08:49.391Z,23.14
2023-05-01T06:09:49.385Z,23.15
2023-05-01T06:10:49.417Z,23.14
2023-05-01T06:11:49.405Z,23.14
2023-05-01T06:12:58.779Z,23.14
2023-05-01T06:13:50.437Z,23.14
2023-05-01T06:14:49.390Z,23.12
2023-05-01T06:15:49.418Z,23.14
2023-05-01T06:16:49.401Z,23.14
2023-05-01T06:17:49.395Z,23.14
2023-05-01T06:18:49.373Z,23.14
2023-05-01T06:19:49.364Z,23.11
2023-05-01T06:20:49.370Z,23.12
2023-05-01T06:21:49.365Z,23.12
2023-05-01T06:22:49.380Z,23.15
2023-05-01T06:23:49.335Z,23.16
2023-05-01T06:24:49.346Z,23.16
2023-05-01T06:25:49.322Z,23.14
2023-05-01T06:26:49.335Z,23.14
2023-05-01T06:27:49.311Z,23.15
2023-05-01T06:28:50.128Z,23.16
2023-05-01T06:29:49.542Z,23.15
2023-05-01T06:30:49.564Z,23.15
2023-05-01T06:31:49.684Z,23.18
2023-05-01T06:32:49.623Z,23.19
2023-05-01T06:33:49.579Z,23.21
2023-05-01T06:34:49.571Z,23.22
2023-05-01T06:35:49.558Z,23.21
2023-05-01T06:36:49.586Z,23.19
2023-05-01T06:37:49.596Z,23.22
2023-05-01T06:38:49.563Z,23.23
2023-05-01T06:39:49.565Z,23.25
2023-05-01T06:40:49.557Z,23.28
2023-05-01T06:41:49.604Z,23.26
2023-05-01T06:42:49.574Z,23.26
2023-05-01T06:43:49.548Z,23.28
2023-05-01T06:44:49.545Z,23.28
2023-05-01T06:45:49.589Z,23.26
2023-05-01T06:46:49.603Z,23.28
2023-05-01T06:47:49.616Z,23.25
2023-05-01T06:48:49.622Z,23.28
2023-05-01T06:49:49.624Z,23.29
2023-05-01T06:50:49.652Z,23.26
2023-05-01T06:51:49.686Z,23.29
2023-05-01T06:52:49.713Z,23.29
2023-05-01T06:53:49.704Z,23.28
2023-05-01T06:54:49.749Z,23.29
2023-05-01T06:55:49.773Z,23.29
2023-05-01T06:56:49.793Z,23.32
2023-05-01T06:57:49.824Z,23.28
2023-05-01T06:58:49.833Z,23.30
2023-05-01T06:59:49.870Z,23.30
2023-05-01T07:00:49.924Z,23.33
2023-05-01T07:01:49.968Z,23.35
2023-05-01T07:02:50.049Z,23.33
2023-05-01T07:03:49.973Z,23.33
2023-05-01T07:04:49.970Z,23.33
2023-05-01T07:05:50.053Z,23.35
2023-05-01T07:06:50.106Z,23.32
2023-05-01T07:07:58.038Z,23.35
2023-05-01T07:08:51.130Z,23.38
2023-05-01T07:09:50.100Z,23.36
2023-05-01T07:10:50.078Z,23.36
2023-05-01T07:11:50.066Z,23.36
2023-05-01T07:12:50.069Z,23.39
2023-05-01T07:13:50.076Z,23.41
2023-05-01T07:14:50.063Z,23.39
2023-05-01T07:15:51.134Z,23.39
2023-05-01T07:16:50.130Z,23.41
2023-05-01T07:17:50.202Z,23.42
2023-05-01T07:18:50.172Z,23.42
2023-05-01T07:19:50.336Z,23.43
2023-05-01T07:20:50.424Z,23.42
2023-05-01T07:21:50.345Z,23.41
2023-05-01T07:22:50.428Z,23.41
2023-05-01T07:23:50.427Z,23.42
2023-05-01T07:24:50.481Z,23.42
2023-05-01T07:25:50.516Z,23.42
2023-05-01T07:26:50.582Z,23.45
2023-05-01T07:27:50.638Z,23.43
2023-05-01T07:28:50.705Z,23.45
2023-05-01T07:29:50.732Z,23.46
2023-05-01T07:30:50.802Z,23.48
2023-05-01T07:31:50.862Z,23.48
2023-05-01T07:32:50.994Z,23.48
2023-05-01T07:33:51.270Z,23.50
2023-05-01T07:34:51.059Z,23.50
2023-05-01T07:35:51.138Z,23.48
2023-05-01T07:36:51.177Z,23.52
2023-05-01T07:37:51.259Z,23.49
2023-05-01T07:38:51.309Z,23.50
2023-05-01T07:39:51.364Z,23.49
2023-05-01T07:40:51.421Z,23.52
2023-05-01T07:41:51.457Z,23.52
2023-05-01T07:42:54.371Z,23.50
2023-05-01T07:43:51.498Z,23.53
2023-05-01T07:44:51.506Z,23.50
2023-05-01T07:45:51.535Z,23.52
2023-05-01T07:46:51.514Z,23.53
2023-05-01T07:47:51.541Z,23.53
2023-05-01T07:48:51.491Z,23.52
2023-05-01T07:49:51.468Z,23.56
2023-05-01T07:50:51.461Z,23.56
2023-05-01T07:51:51.456Z,23.56
2023-05-01T07:52:51.453Z,23.57
2023-05-01T07:53:51.441Z,23.57
2023-05-01T07:54:51.460Z,23.59
2023-05-01T07:55:51.422Z,23.56
2023-05-01T07:56:51.435Z,23.57
2023-05-01T07:57:51.444Z,23.57
2023-05-01T07:58:51.413Z,23.57
2023-05-01T07:59:51.427Z,23.60
2023-05-01T08:00:51.435Z,23.60
2023-05-01T08:01:51.422Z,23.62
2023-05-01T08:02:51.499Z,23.59
2023-05-01T08:03:51.566Z,23.60
2023-05-01T08:04:51.401Z,23.62
2023-05-01T08:05:51.355Z,23.64
2023-05-01T08:06:51.529Z,23.63
2023-05-01T08:07:51.352Z,23.66
2023-05-01T08:08:51.346Z,23.66
2023-05-01T08:09:51.362Z,23.69
2023-05-01T08:10:51.355Z,23.70
2023-05-01T08:11:51.306Z,23.69
2023-05-01T08:12:51.340Z,23.70
2023-05-01T08:13:51.316Z,23.72
2023-05-01T08:14:51.331Z,23.73
2023-05-01T08:15:51.332Z,23.74
2023-05-01T08:16:51.308Z,23.74
2023-05-01T08:17:51.345Z,23.73
2023-05-01T08:18:51.287Z,23.74
2023-05-01T08:19:51.280Z,23.74
2023-05-01T08:20:51.243Z,23.72
2023-05-01T08:21:51.323Z,23.76
2023-05-01T08:22:51.264Z,23.77
2023-05-01T08:23:51.266Z,23.76
2023-05-01T08:24:51.266Z,23.77
2023-05-01T08:25:51.294Z,23.77
2023-05-01T08:26:51.338Z,23.80
2023-05-01T08:27:51.397Z,23.77
2023-05-01T08:28:51.443Z,23.80
2023-05-01T08:29:51.477Z,23.79
2023-05-01T08:30:51.583Z,23.80
2023-05-01T08:31:51.739Z,23.80
2023-05-01T08:32:51.641Z,23.80
2023-05-01T08:33:51.665Z,23.80
2023-05-01T08:34:51.730Z,23.79
2023-05-01T08:35:51.765Z,23.80
2023-05-01T08:36:51.814Z,23.80
2023-05-01T08:37:51.865Z,23.81
2023-05-01T08:38:51.907Z,23.81
2023-05-01T08:39:51.926Z,23.81
2023-05-01T08:40:51.975Z,23.84
2023-05-01T08:41:51.994Z,23.83
2023-05-01T08:42:52.040Z,23.85
2023-05-01T08:43:52.117Z,23.84
2023-05-01T08:44:52.133Z,23.87
2023-05-01T08:45:52.180Z,23.85
2023-05-01T08:46:52.218Z,23.87
2023-05-01T08:47:52.602Z,23.90
2023-05-01T08:48:52.295Z,23.90
2023-05-01T08:49:52.326Z,23.91
2023-05-01T08:50:52.371Z,23.88
2023-05-01T08:51:52.383Z,23.91
2023-05-01T08:52:52.426Z,23.91
2023-05-01T08:53:52.483Z,23.93
2023-05-01T08:54:52.521Z,23.93
2023-05-01T08:55:52.543Z,23.93
2023-05-01T08:56:52.597Z,23.94
2023-05-01T08:57:52.655Z,23.93
2023-05-01T08:58:52.672Z,23.96
2023-05-01T08:59:52.694Z,23.97
2023-05-01T09:00:52.747Z,23.97
2023-05-01T09:01:52.844Z,23.99
2023-05-01T09:02:52.942Z,23.99
2023-05-01T09:03:52.957Z,23.99
2023-05-01T09:04:52.920Z,24.03
2023-05-01T09:05:52.918Z,24.00
2023-05-01T09:06:53.098Z,24.01
2023-05-01T09:07:53.018Z,24.03
2023-05-01T09:08:53.095Z,24.03
2023-05-01T09:09:53.225Z,24.03
2023-05-01T09:10:53.096Z,24.07
2023-05-01T09:11:53.175Z,24.04
2023-05-01T09:12:53.177Z,24.04
2023-05-01T09:13:53.232Z,24.04
2023-05-01T09:14:53.245Z,24.08
2023-05-01T09:15:53.395Z,24.08
2023-05-01T09:16:53.360Z,24.07
2023-05-01T09:17:53.372Z,24.08
2023-05-01T09:18:53.346Z,24.11
2023-05-01T09:19:53.520Z,24.10
2023-05-01T09:20:53.403Z,24.12
2023-05-01T09:21:53.432Z,24.11
2023-05-01T09:22:53.465Z,24.12
2023-05-01T09:23:53.482Z,24.14
2023-05-01T09:24:53.511Z,24.14
2023-05-01T09:25:53.527Z,24.15
2023-05-01T09:26:53.573Z,24.17
2023-05-01T09:27:53.569Z,24.17
2023-05-01T09:28:53.632Z,24.18
2023-05-01T09:29:53.640Z,24.17
2023-05-01T09:30:53.653Z,24.21
2023-05-01T09:31:53.676Z,24.19
2023-05-01T09:32:53.702Z,24.24
2023-05-01T09:33:53.728Z,24.21
2023-05-01T09:34:53.784Z,24.22
2023-05-01T09:35:53.794Z,24.25
2023-05-01T09:36:53.804Z,24.24
2023-05-01T09:37:53.822Z,24.24
2023-05-01T09:38:53.839Z,24.25
2023-05-01T09:39:53.876Z,24.28
2023-05-01T09:40:53.879Z,24.25
2023-05-01T09:41:53.910Z,24.28
2023-05-01T09:42:53.942Z,24.27
2023-05-01T09:43:53.916Z,24.28
2023-05-01T09:44:53.984Z,24.31
2023-05-01T09:45:53.994Z,24.29
2023-05-01T09:46:53.990Z,24.28
2023-05-01T09:47:54.055Z,24.31
2023-05-01T09:48:54.019Z,24.29
2023-05-01T09:49:54.195Z,24.32
2023-05-01T09:50:54.049Z,24.32
2023-05-01T09:51:54.105Z,24.31
2023-05-01T09:52:54.107Z,24.32
2023-05-01T09:53:54.129Z,24.29
2023-05-01T09:54:54.155Z,24.32
2023-05-01T09:55:54.222Z,24.32
2023-05-01T09:56:54.228Z,24.34
2023-05-01T09:57:54.244Z,24.29
2023-05-01T09:58:54.252Z,24.34
2023-05-01T09:59:54.461Z,24.34
2023-05-01T10:00:54.312Z,24.32
2023-05-01T10:01:54.329Z,24.34
2023-05-01T10:02:54.409Z,24.34
2023-05-01T10:03:54.437Z,24.38
2023-05-01T10:04:54.311Z,24.35
2023-05-01T10:05:54.371Z,24.39
2023-05-01T10:06:54.577Z,24.38
2023-05-01T10:07:54.372Z,24.36
2023-05-01T10:08:54.384Z,24.39
2023-05-01T10:09:54.463Z,24.42
2023-05-01T10:10:54.405Z,24.45
2023-05-01T10:11:54.406Z,24.43
2023-05-01T10:12:54.447Z,24.45
2023-05-01T10:13:54.383Z,24.46
2023-05-01T10:14:54.409Z,24.46
2023-05-01T10:15:54.403Z,24.49
2023-05-01T10:16:54.458Z,24.49
2023-05-01T10:17:54.958Z,24.49
2023-05-01T10:18:54.443Z,24.51
2023-05-01T10:19:54.731Z,24.48
2023-05-01T10:20:54.406Z,24.51
2023-05-01T10:21:54.410Z,24.52
2023-05-01T10:22:54.396Z,24.54
2023-05-01T10:23:54.437Z,24.54
2023-05-01T10:24:54.426Z,24.54
2023-05-01T10:25:54.415Z,24.55
2023-05-01T10:26:54.441Z,24.56
2023-05-01T10:27:54.465Z,24.58
2023-05-01T10:28:54.468Z,24.55
2023-05-01T10:29:54.767Z,24.56
2023-05-01T10:30:54.597Z,24.58
2023-05-01T10:31:54.689Z,24.59
2023-05-01T10:32:54.586Z,24.58
2023-05-01T10:33:54.546Z,24.58
2023-05-01T10:34:54.684Z,24.59
2023-05-01T10:35:54.617Z,24.62
2023-05-01T10:36:54.643Z,24.65
2023-05-01T10:37:54.685Z,24.62
2023-05-01T10:38:54.734Z,24.65
2023-05-01T10:39:54.760Z,24.65
2023-05-01T10:40:54.819Z,24.65
2023-05-01T10:41:54.877Z,24.67
2023-05-01T10:42:54.881Z,24.70
2023-05-01T10:43:54.945Z,24.69
2023-05-01T10:44:55.173Z,24.67
2023-05-01T10:45:55.164Z,24.69
2023-05-01T10:46:55.218Z,24.73
2023-05-01T10:47:55.232Z,24.72
2023-05-01T10:48:55.270Z,24.75
2023-05-01T10:49:55.309Z,24.76
2023-05-01T10:50:55.368Z,24.77
2023-05-01T10:51:55.401Z,24.77
2023-05-01T10:52:55.496Z,24.80
2023-05-01T10:53:55.530Z,24.79
2023-05-01T10:54:55.783Z,24.80
2023-05-01T10:55:55.690Z,24.80
2023-05-01T10:56:55.729Z,24.83
2023-05-01T10:57:55.772Z,24.83
2023-05-01T10:58:55.828Z,24.86
2023-05-01T10:59:55.895Z,24.89
2023-05-01T11:00:55.928Z,24.87
2023-05-01T11:01:55.990Z,24.86
2023-05-01T11:02:56.070Z,24.89
2023-05-01T11:03:56.101Z,24.93
2023-05-01T11:04:56.581Z,24.93
2023-05-01T11:05:56.248Z,24.93
2023-05-01T11:06:56.269Z,24.95
2023-05-01T11:07:56.304Z,24.94
2023-05-01T11:08:56.346Z,24.94
2023-05-01T11:09:56.384Z,24.97
2023-05-01T11:10:56.454Z,24.95
2023-05-01T11:11:56.531Z,24.95
2023-05-01T11:12:56.564Z,24.98
2023-05-01T11:13:56.605Z,24.97
2023-05-01T11:14:56.981Z,24.97
2023-05-01T11:15:56.720Z,25.01
2023-05-01T11:16:56.722Z,25.04
2023-05-01T11:17:56.808Z,25.01
2023-05-01T11:18:56.835Z,25.03
2023-05-01T11:19:56.877Z,25.04
2023-05-01T11:20:56.934Z,25.03
2023-05-01T11:21:56.987Z,25.04
2023-05-01T11:22:57.007Z,25.04
2023-05-01T11:23:57.049Z,25.06
2023-05-01T11:24:57.466Z,25.06
2023-05-01T11:25:57.146Z,25.04
2023-05-01T11:26:57.189Z,25.06
2023-05-01T11:27:57.240Z,25.07
2023-05-01T11:28:57.306Z,25.09
2023-05-01T11:29:57.338Z,25.11
2023-05-01T11:30:57.431Z,25.11
2023-05-01T11:31:57.509Z,25.13
2023-05-01T11:32:57.558Z,25.11
2023-05-01T11:33:57.537Z,25.14
2023-05-01T11:34:57.803Z,25.14
2023-05-01T11:35:57.566Z,25.13
2023-05-01T11:36:57.648Z,25.13
2023-05-01T11:37:57.706Z,25.14
2023-05-01T11:38:57.734Z,25.14
2023-05-01T11:39:57.778Z,25.14
2023-05-01T11:40:57.823Z,25.14
2023-05-01T11:41:57.887Z,25.14
2023-05-01T11:42:57.912Z,25.17
2023-05-01T11:43:57.965Z,25.14
2023-05-01T11:44:58.100Z,25.15
2023-05-01T11:45:58.004Z,25.20
2023-05-01T11:46:58.022Z,25.18
2023-05-01T11:47:58.066Z,25.18
2023-05-01T11:48:58.075Z,25.15
2023-05-01T11:49:58.114Z,25.21
2023-05-01T11:50:58.117Z,25.20
2023-05-01T11:51:58.153Z,25.21
2023-05-01T11:52:58.232Z,25.21
2023-05-01T11:53:58.264Z,25.22
2023-05-01T11:54:58.290Z,25.24
2023-05-01T11:55:58.278Z,25.24
2023-05-01T11:56:58.297Z,25.24
2023-05-01T11:57:58.360Z,25.24
2023-05-01T11:58:58.349Z,25.25
2023-05-01T11:59:58.382Z,25.25
2023-05-01T12:00:58.425Z,25.25
2023-05-01T12:01:58.589Z,25.28
2023-05-01T12:02:58.693Z,25.30
2023-05-01T12:03:58.557Z,25.31
2023-05-01T12:04:58.938Z,25.28
2023-05-01T12:05:58.656Z,25.30
2023-05-01T12:06:58.613Z,25.30
2023-05-01T12:07:58.645Z,25.30
2023-05-01T12:08:58.650Z,25.30
2023-05-01T12:09:58.703Z,25.30
2023-05-01T12:10:58.709Z,25.31
2023-05-01T12:11:58.716Z,25.32
2023-05-01T12:12:58.758Z,25.32
2023-05-01T12:13:58.756Z,25.32
2023-05-01T12:14:59.093Z,25.34
2023-05-01T12:15:58.796Z,25.34
2023-05-01T12:16:58.880Z,25.37
2023-05-01T12:17:58.956Z,25.37
2023-05-01T12:18:58.895Z,25.38
2023-05-01T12:19:58.950Z,25.35
2023-05-01T12:20:58.977Z,25.38
2023-05-01T12:21:58.951Z,25.38
2023-05-01T12:22:58.983Z,25.39
2023-05-01T12:23:59.022Z,25.41
2023-05-01T12:24:59.276Z,25.42
2023-05-01T12:25:59.053Z,25.41
2023-05-01T12:26:59.085Z,25.44
2023-05-01T12:27:59.116Z,25.41
2023-05-01T12:28:59.132Z,25.44
2023-05-01T12:29:59.128Z,25.46
2023-05-01T12:30:59.204Z,25.45
2023-05-01T12:31:59.235Z,25.45
2023-05-01T12:32:59.236Z,25.48
2023-05-01T12:33:59.193Z,25.48
2023-05-01T12:34:59.450Z,25.49
2023-05-01T12:35:59.212Z,25.50
2023-05-01T12:36:59.266Z,25.49
2023-05-01T12:37:59.289Z,25.53
2023-05-01T12:38:59.310Z,25.52
2023-05-01T12:39:59.297Z,25.57
2023-05-01T12:40:59.365Z,25.53
2023-05-01T12:41:59.357Z,25.57
2023-05-01T12:42:59.383Z,25.61
2023-05-01T12:43:59.350Z,25.61
2023-05-01T12:44:59.673Z,25.59
2023-05-01T12:45:59.412Z,25.62
2023-05-01T12:46:59.421Z,25.66
2023-05-01T12:47:59.445Z,25.62
2023-05-01T12:48:59.442Z,25.64
2023-05-01T12:49:59.665Z,25.62
2023-05-01T12:50:59.508Z,25.64
2023-05-01T12:51:59.614Z,25.65
2023-05-01T12:52:59.705Z,25.65